createdAt,value
2023-04-23T00:00:00.123Z,0
2023-04-23T00:05:01.794Z,0
2023-04-23T00:10:01.133Z,0
2023-04-23T00:15:00.221Z,0
2023-04-23T00:19:59.946Z,0
2023-04-23T00:24:59.825Z,0
2023-04-23T00:29:59.643Z,0
2023-04-23T00:34:59.704Z,0
2023-04-23T00:39:59.766Z,0
2023-04-23T00:44:59.752Z,0
2023-04-23T00:49:59.850Z,0
2023-04-23T00:54:59.625Z,0
2023-04-23T00:59:59.680Z,0
2023-04-23T01:04:59.487Z,0
2023-04-23T01:09:59.671Z,0
2023-04-23T01:14:59.486Z,0
2023-04-23T01:19:59.779Z,0
2023-04-23T01:24:59.634Z,0
2023-04-23T01:30:00.165Z,0
2023-04-23T01:34:59.723Z,0
2023-04-23T01:39:59.398Z,0
2023-04-23T01:44:59.758Z,0
2023-04-23T01:49:59.866Z,0
2023-04-23T01:54:59.285Z,0
2023-04-23T02:00:01.976Z,0
2023-04-23T02:04:59.343Z,0
2023-04-23T02:10:00.801Z,0
2023-04-23T02:14:59.499Z,0
2023-04-23T02:19:59.685Z,0
2023-04-23T02:24:59.276Z,0
2023-04-23T02:29:59.661Z,0
2023-04-23T02:34:59.451Z,0
2023-04-23T02:39:59.573Z,0
2023-04-23T02:44:59.457Z,0
2023-04-23T02:49:59.612Z,0
2023-04-23T02:54:59.408Z,0
2023-04-23T02:59:59.659Z,0
2023-04-23T03:04:59.368Z,0
2023-04-23T03:09:59.416Z,0
2023-04-23T03:14:59.449Z,0
2023-04-23T03:19:59.655Z,0
2023-04-23T03:24:59.163Z,0
2023-04-23T03:29:59.140Z,0
2023-04-23T03:34:59.278Z,0
2023-04-23T03:39:59.066Z,0
2023-04-23T03:44:59.802Z,0
2023-04-23T03:49:59.226Z,0
2023-04-23T03:54:59.022Z,0
2023-04-23T03:59:59.271Z,0
2023-04-23T04:04:59.632Z,0
2023-04-23T04:09:59.026Z,0
2023-04-23T04:14:59.052Z,0
2023-04-23T04:19:59.017Z,0
2023-04-23T04:24:59.322Z,0
2023-04-23T04:29:59.179Z,0
2023-04-23T04:34:59.254Z,0
2023-04-23T04:39:59.208Z,0.2
2023-04-23T04:44:59.328Z,0.6
2023-04-23T04:49:59.132Z,1.2
2023-04-23T04:54:58.990Z,1.7
2023-04-23T04:59:59.121Z,2.4
2023-04-23T05:04:59.196Z,3
2023-04-23T05:09:59.172Z,3.3
2023-04-23T05:14:59.229Z,3.8
2023-04-23T05:19:59.067Z,4.6
2023-04-23T05:24:59.058Z,5.2
2023-04-23T05:29:59.691Z,5.5
2023-04-23T05:34:59.445Z,6
2023-04-23T05:39:58.762Z,7.2
2023-04-23T05:44:59.099Z,7.8
2023-04-23T05:49:59.179Z,7.7
2023-04-23T05:54:58.923Z,8.7
2023-04-23T05:59:59.023Z,9.6
2023-04-23T06:04:59.191Z,10.2
2023-04-23T06:09:59.011Z,11.2
2023-04-23T06:14:59.112Z,11.8
2023-04-23T06:19:59.044Z,12.7
2023-04-23T06:24:59.170Z,13.5
2023-04-23T06:29:59.169Z,14.4
2023-04-23T06:35:02.007Z,15.6
2023-04-23T06:39:58.923Z,16.2
2023-04-23T06:44:59.269Z,17.6
2023-04-23T06:49:59.089Z,18.6
2023-04-23T06:54:58.911Z,19.6
2023-04-23T06:59:58.774Z,20.8
2023-04-23T07:04:58.845Z,21.7
2023-04-23T07:09:58.864Z,22.8
2023-04-23T07:14:59.103Z,23.8
2023-04-23T07:19:59.013Z,24.6
2023-04-23T07:24:58.917Z,24.7
2023-04-23T07:29:58.997Z,25.6
2023-04-23T07:34:58.706Z,24.8
2023-04-23T07:39:58.807Z,25.6
2023-04-23T07:44:58.624Z,26.2
2023-04-23T07:49:58.883Z,26.6
2023-04-23T07:54:58.551Z,26.4
2023-04-23T07:59:58.586Z,27.6
2023-04-23T08:04:58.676Z,28.4
2023-04-23T08:09:58.585Z,28.2
2023-04-23T08:14:58.546Z,28.2
2023-04-23T08:19:58.741Z,28.3
2023-04-23T08:24:58.466Z,28.1
2023-04-23T08:29:58.737Z,28
2023-04-23T08:34:58.901Z,27.9
2023-04-23T08:39:58.719Z,28.7
2023-04-23T08:44:58.468Z,29.6
2023-04-23T08:49:58.907Z,28.3
2023-04-23T08:54:59.362Z,29.9
2023-04-23T08:59:58.663Z,30.3
2023-04-23T09:04:58.879Z,34.4
2023-04-23T09:09:58.547Z,36.7
2023-04-23T09:14:58.713Z,41
2023-04-23T09:19:58.347Z,45.2
2023-04-23T09:24:58.340Z,39.5
2023-04-23T09:29:59.674Z,44.3
2023-04-23T09:34:58.296Z,43.5
2023-04-23T09:39:59.018Z,47
2023-04-23T09:44:58.632Z,40.1
2023-04-23T09:49:58.356Z,53
2023-04-23T09:55:00.900Z,63
2023-04-23T10:00:11.179Z,60.3
2023-04-23T10:05:10.134Z,67.7
2023-04-23T10:09:58.311Z,70.9
2023-04-23T10:14:58.340Z,64.4
2023-04-23T10:19:58.411Z,64.7
2023-04-23T10:24:58.348Z,68.9
2023-04-23T10:29:58.336Z,72.9
2023-04-23T10:34:58.437Z,79.7
2023-04-23T10:39:58.141Z,73.3
2023-04-23T10:45:04.781Z,68.4
2023-04-23T10:50:16.681Z,73.2
2023-04-23T10:54:58.321Z,68
2023-04-23T11:00:00.871Z,51
2023-04-23T11:04:58.739Z,48.2
2023-04-23T11:09:58.008Z,72.1
2023-04-23T11:14:58.939Z,80
2023-04-23T11:19:58.096Z,79.3
2023-04-23T11:24:58.279Z,78.2
2023-04-23T11:29:59.868Z,94.5
2023-04-23T11:35:00.373Z,107.4
2023-04-23T11:39:57.981Z,116.9
2023-04-23T11:44:58.188Z,107.2
2023-04-23T11:49:57.988Z,84.6
2023-04-23T11:54:58.036Z,74.4
2023-04-23T11:59:58.108Z,81.3
2023-04-23T12:05:03.745Z,77.9
2023-04-23T12:09:58.425Z,79.3
2023-04-23T12:15:02.456Z,73
2023-04-23T12:19:58.137Z,69.3
2023-04-23T12:24:58.437Z,85.6
2023-04-23T12:29:58.832Z,146.1
2023-04-23T12:34:58.136Z,107.9
2023-04-23T12:39:58.104Z,76.9
2023-04-23T12:45:04.139Z,67.9
2023-04-23T12:49:58.058Z,68.7
2023-04-23T12:54:58.296Z,62.4
2023-04-23T12:59:58.079Z,51.5
2023-04-23T13:04:58.037Z,39.3
2023-04-23T13:09:58.717Z,33.4
2023-04-23T13:14:58.260Z,46
2023-04-23T13:19:58.236Z,49.5
2023-04-23T13:24:58.520Z,31.8
2023-04-23T13:29:57.972Z,20
2023-04-23T13:34:58.115Z,22.5
2023-04-23T13:39:57.852Z,25.5
2023-04-23T13:44:58.121Z,23.6
2023-04-23T13:49:58.276Z,20.3
2023-04-23T13:54:57.620Z,23.6
2023-04-23T13:59:58.413Z,20.9
2023-04-23T14:04:57.930Z,16.9
2023-04-23T14:09:58.097Z,14.9
2023-04-23T14:14:58.195Z,11.8
2023-04-23T14:19:58.061Z,16
2023-04-23T14:25:01.098Z,17.5
2023-04-23T14:30:02.710Z,15.6
2023-04-23T14:34:57.875Z,14
2023-04-23T14:39:57.824Z,10
2023-04-23T14:44:58.060Z,8.7
2023-04-23T14:49:57.777Z,7.7
2023-04-23T14:54:57.752Z,7.7
2023-04-23T14:59:57.740Z,5.1
2023-04-23T15:04:57.780Z,7.3
2023-04-23T15:09:57.695Z,8.2
2023-04-23T15:14:58.149Z,8.1
2023-04-23T15:19:57.678Z,8.5
2023-04-23T15:24:57.647Z,9.7
2023-04-23T15:29:57.752Z,10.3
2023-04-23T15:34:57.915Z,9.6
2023-04-23T15:39:57.422Z,9.5
2023-04-23T15:44:57.882Z,9.4
2023-04-23T15:49:57.453Z,9.1
2023-04-23T15:54:57.757Z,8.2
2023-04-23T15:59:57.848Z,7.7
2023-04-23T16:04:57.841Z,7
2023-04-23T16:09:57.898Z,6.8
2023-04-23T16:14:57.504Z,6.4
2023-04-23T16:19:57.858Z,6
2023-04-23T16:24:57.728Z,5.7
2023-04-23T16:29:58.089Z,5.2
2023-04-23T16:34:57.390Z,5.1
2023-04-23T16:39:57.563Z,4.7
2023-04-23T16:44:57.660Z,4.2
2023-04-23T16:49:57.271Z,3.6
2023-04-23T16:54:57.605Z,2.9
2023-04-23T16:59:57.393Z,2.6
2023-04-23T17:04:57.757Z,1.8
2023-04-23T17:09:57.258Z,1.7
2023-04-23T17:14:57.491Z,1.7
2023-04-23T17:19:57.596Z,2
2023-04-23T17:24:57.243Z,2.3
2023-04-23T17:29:57.425Z,2.8
2023-04-23T17:35:09.375Z,3.9
2023-04-23T17:39:57.276Z,4.8
2023-04-23T17:44:57.443Z,4.4
2023-04-23T17:49:57.426Z,3.9
2023-04-23T17:54:57.524Z,3.1
2023-04-23T17:59:57.787Z,2.2
2023-04-23T18:04:57.240Z,1.4
2023-04-23T18:09:57.208Z,1.3
2023-04-23T18:14:57.901Z,1.4
2023-04-23T18:19:57.096Z,1
2023-04-23T18:24:57.415Z,0.9
2023-04-23T18:30:00.842Z,0.3
2023-04-23T18:35:00.310Z,0.1
2023-04-23T18:40:00.353Z,0
2023-04-23T18:45:00.732Z,0
2023-04-23T18:50:00.366Z,0
2023-04-23T18:55:00.505Z,0
2023-04-23T19:00:00.511Z,0
2023-04-23T19:05:00.338Z,0
2023-04-23T19:10:00.550Z,0
2023-04-23T19:15:00.330Z,0
2023-04-23T19:20:00.255Z,0
2023-04-23T19:25:00.641Z,0
2023-04-23T19:30:00.661Z,0
2023-04-23T19:35:00.310Z,0
2023-04-23T19:40:00.535Z,0
2023-04-23T19:45:00.447Z,0
2023-04-23T19:50:00.589Z,0
2023-04-23T19:55:00.090Z,0
2023-04-23T20:00:00.383Z,0
2023-04-23T20:05:00.175Z,0
2023-04-23T20:10:00.443Z,0
2023-04-23T20:15:00.408Z,0
2023-04-23T20:20:00.600Z,0
2023-04-23T20:25:00.525Z,0
2023-04-23T20:30:01.600Z,0
2023-04-23T20:35:00.455Z,0
2023-04-23T20:40:00.064Z,0
2023-04-23T20:45:00.348Z,0
2023-04-23T20:50:00.205Z,0
2023-04-23T20:55:00.443Z,0
2023-04-23T21:00:00.707Z,0
2023-04-23T21:05:00.030Z,0
2023-04-23T21:10:00.331Z,0
2023-04-23T21:15:00.007Z,0
2023-04-23T21:20:00.055Z,0
2023-04-23T21:25:00.244Z,0
2023-04-23T21:30:04.397Z,0
2023-04-23T21:35:00.192Z,0
2023-04-23T21:40:00.328Z,0
2023-04-23T21:45:00.152Z,0
2023-04-23T21:50:00.289Z,0
2023-04-23T21:55:00.241Z,0
2023-04-23T22:00:00.201Z,0
2023-04-23T22:05:00.198Z,0
2023-04-23T22:10:00.445Z,0
2023-04-23T22:14:59.849Z,0
2023-04-23T22:19:59.852Z,0
2023-04-23T22:24:59.859Z,0
2023-04-23T22:29:59.781Z,0
2023-04-23T22:34:59.997Z,0
2023-04-23T22:40:00.209Z,0
2023-04-23T22:45:00.236Z,0
2023-04-23T22:50:00.064Z,0
2023-04-23T22:54:59.983Z,0
2023-04-23T23:00:00.006Z,0
2023-04-23T23:05:00.096Z,0
2023-04-23T23:09:59.717Z,0
2023-04-23T23:15:00.737Z,0
2023-04-23T23:19:59.796Z,0
2023-04-23T23:24:59.963Z,0
2023-04-23T23:30:00.043Z,0
2023-04-23T23:35:00.358Z,0
2023-04-23T23:40:00.261Z,0
2023-04-23T23:44:59.949Z,0
2023-04-23T23:49:59.794Z,0
2023-04-23T23:54:59.747Z,0
